DW7431 Cala Millor ES current weather conditions

sailwx.info

Wind from 337 at 0 knots gusting 2

Air temperature 16.1° C
Dewpoint 11.3° C

Last reported at 2017-Mar-29 21:01 UTC.
Time now 2017-Mar-29 22:59 UTC

Location: N 39°36' E 003°22'.
View on Google Maps.

See reports from other nearby stations

  
Tides and Currents Weather Stations Pressure Air Temp Water Temp Dewpoint Dewpoint Depression Visibility Wind Speed Wind Dir Waves Ship Positions
date/time (UTC)wind fromknots sea level pressurealtimeterstation pressurevisibilityair tempwater tempwave heightnotes
2017-Mar-29 21:01 337 0 gusting 2 16.1
2017-Mar-29 20:01 337 0 17.2
2017-Mar-29 16:01 157 3 gusting 3 22.2
2017-Mar-29 15:01 180 4 gusting 3 22.8
2017-Mar-29 14:01 225 3 gusting 4 23.3
2017-Mar-29 13:01 180 5 gusting 6 22.2
2017-Mar-29 12:01 180 5 gusting 6 21.1
2017-Mar-29 11:01 180 5 gusting 6 18.9
2017-Mar-29 10:01 157 2 gusting 1 18.3
2017-Mar-29 09:01 247 1 gusting 2 15.6
2017-Mar-29 05:01 337 2 gusting 2 11.1
2017-Mar-29 02:01 315 4 gusting 4 11.1
2017-Mar-29 00:01 337 11.7
2017-Mar-28 22:01 292 15.0
2017-Mar-28 21:01 292 15.0
2017-Mar-28 20:01 337 0 gusting 0 16.7
2017-Mar-28 18:01 067 2 gusting 2 18.9
2017-Mar-28 17:01 045 4 gusting 6 18.9
2017-Mar-28 16:01 067 6 gusting 4 18.9
2017-Mar-28 15:01 022 6 gusting 11 18.9
2017-Mar-28 14:01 337 6 gusting 9 18.9
2017-Mar-28 10:01 067 3 gusting 6 19.4
2017-Mar-28 07:01 067 11.7
2017-Mar-28 06:01 022 1 gusting 1 11.7
2017-Mar-28 03:01 022 11.7
2017-Mar-28 00:01 315 0 gusting 2 12.2